createdAt,value
2018-05-02T00:00:54.482Z,4.82
2018-05-02T00:02:03.580Z,4.82
2018-05-02T00:03:12.407Z,4.84
2018-05-02T00:04:21.241Z,4.84
2018-05-02T00:05:30.067Z,4.82
2018-05-02T00:06:38.897Z,4.8
2018-05-02T00:07:48.029Z,4.69
2018-05-02T00:08:56.860Z,4.72
2018-05-02T00:10:05.692Z,4.69
2018-05-02T00:11:14.520Z,4.65
2018-05-02T00:12:23.348Z,4.59
2018-05-02T00:13:32.750Z,4.6
2018-05-02T00:14:41.850Z,4.58
2018-05-02T00:15:50.679Z,4.52
2018-05-02T00:16:59.791Z,4.54
2018-05-02T00:18:08.661Z,4.45
2018-05-02T00:19:18.529Z,4.44
2018-05-02T00:20:27.354Z,4.44
2018-05-02T00:21:36.476Z,4.52
2018-05-02T00:22:45.304Z,4.55
2018-05-02T00:23:54.131Z,4.55
2018-05-02T00:25:02.961Z,4.51
2018-05-02T00:26:11.792Z,4.54
2018-05-02T00:27:20.616Z,4.58
2018-05-02T00:28:29.514Z,4.55
2018-05-02T00:29:38.552Z,4.44
2018-05-02T00:30:47.633Z,4.47
2018-05-02T00:31:56.456Z,4.42
2018-05-02T00:33:05.283Z,4.42
2018-05-02T00:34:14.108Z,4.34
2018-05-02T00:35:22.945Z,4.42
2018-05-02T00:36:32.046Z,4.42
2018-05-02T00:37:40.872Z,4.42
2018-05-02T00:38:49.699Z,4.47
2018-05-02T00:39:58.526Z,4.4
2018-05-02T00:41:07.354Z,4.44
2018-05-02T00:42:16.227Z,4.4
2018-05-02T00:43:25.056Z,4.34
2018-05-02T00:44:34.167Z,4.34
2018-05-02T00:45:42.994Z,4.41
2018-05-02T00:46:51.823Z,4.4
2018-05-02T00:48:00.799Z,4.41
2018-05-02T00:49:09.625Z,4.27
2018-05-02T00:50:18.452Z,4.36
2018-05-02T00:51:27.278Z,4.32
2018-05-02T00:52:36.104Z,4.34
2018-05-02T00:53:45.405Z,4.36
2018-05-02T00:54:54.231Z,4.32
2018-05-02T00:56:03.059Z,4.26
2018-05-02T00:57:11.887Z,4.26
2018-05-02T00:58:20.713Z,4.3
2018-05-02T00:59:29.591Z,4.26
2018-05-02T01:00:38.700Z,4.27
2018-05-02T01:01:47.526Z,4.24
2018-05-02T01:02:56.351Z,4.11
2018-05-02T01:04:05.179Z,4.22
2018-05-02T01:05:14.155Z,4.14
2018-05-02T01:06:22.985Z,4.09
2018-05-02T01:07:31.819Z,4.09
2018-05-02T01:08:40.643Z,4.06
2018-05-02T01:09:49.470Z,4.08
2018-05-02T01:10:59.002Z,4.11
2018-05-02T01:12:08.104Z,4.06
2018-05-02T01:13:16.931Z,4.08
2018-05-02T01:14:26.031Z,4.02
2018-05-02T01:15:35.129Z,4.11
2018-05-02T01:16:43.965Z,4.11
2018-05-02T01:17:52.791Z,4.05
2018-05-02T01:19:01.617Z,4.04
2018-05-02T01:20:10.447Z,4.08
2018-05-02T01:21:19.553Z,4.04
2018-05-02T01:22:28.677Z,4.02
2018-05-02T01:23:37.506Z,4.05
2018-05-02T01:24:46.329Z,4.08
2018-05-02T01:25:55.156Z,3.97
2018-05-02T01:27:03.980Z,4.06
2018-05-02T01:28:12.858Z,3.96
2018-05-02T01:29:21.961Z,3.98
2018-05-02T01:30:30.805Z,4.02
2018-05-02T01:31:39.629Z,4.04
2018-05-02T01:32:48.456Z,4.06
2018-05-02T01:33:57.332Z,4
2018-05-02T01:35:06.160Z,4.08
2018-05-02T01:36:14.985Z,4
2018-05-02T01:37:24.086Z,4.04
2018-05-02T01:38:32.912Z,3.98
2018-05-02T01:39:41.840Z,3.97
2018-05-02T01:40:50.670Z,3.97
2018-05-02T01:41:59.494Z,4.04
2018-05-02T01:43:08.595Z,4.05
2018-05-02T01:44:17.420Z,4.02
2018-05-02T01:45:26.619Z,4.05
2018-05-02T01:46:35.444Z,4.09
2018-05-02T01:47:44.271Z,4.08
2018-05-02T01:48:53.098Z,4.06
2018-05-02T01:50:01.925Z,4.04
2018-05-02T01:51:11.176Z,4.04
2018-05-02T01:52:20.002Z,4.05
2018-05-02T01:53:28.827Z,4.08
2018-05-02T01:54:37.657Z,4.09
2018-05-02T01:55:46.482Z,4.06
2018-05-02T01:56:55.462Z,4.11
2018-05-02T01:58:04.567Z,4.09
2018-05-02T01:59:13.391Z,4.12
2018-05-02T02:00:22.218Z,4.08
2018-05-02T02:01:31.044Z,4.08
2018-05-02T02:02:39.924Z,4.11
2018-05-02T02:03:48.753Z,4.11
2018-05-02T02:04:57.587Z,4.12
2018-05-02T02:06:07.247Z,4.08
2018-05-02T02:07:16.074Z,4.11
2018-05-02T02:08:25.052Z,4.04
2018-05-02T02:09:34.430Z,4.09
2018-05-02T02:10:43.254Z,4
2018-05-02T02:11:52.356Z,4.08
2018-05-02T02:13:01.185Z,3.97
2018-05-02T02:14:10.338Z,4.04
2018-05-02T02:15:19.162Z,4
2018-05-02T02:16:27.993Z,4.08
2018-05-02T02:17:36.820Z,4
2018-05-02T02:18:45.645Z,3.98
2018-05-02T02:19:54.522Z,3.94
2018-05-02T02:21:03.355Z,3.97
2018-05-02T02:22:12.181Z,3.93
2018-05-02T02:23:21.011Z,3.93
2018-05-02T02:24:30.116Z,3.88
2018-05-02T02:25:38.941Z,3.93
2018-05-02T02:26:48.044Z,3.93
2018-05-02T02:27:57.146Z,3.88
2018-05-02T02:29:06.250Z,3.91
2018-05-02T02:30:15.083Z,4
2018-05-02T02:31:25.043Z,4
2018-05-02T02:32:34.156Z,4
2018-05-02T02:33:43.280Z,4.05
2018-05-02T02:34:52.105Z,4.04
2018-05-02T02:36:00.929Z,4.06
2018-05-02T02:37:10.131Z,4.06
2018-05-02T02:38:18.960Z,4.14
2018-05-02T02:39:28.345Z,4.06
2018-05-02T02:40:37.451Z,4.06
2018-05-02T02:41:46.567Z,4.09
2018-05-02T02:42:56.066Z,4.06
2018-05-02T02:44:05.177Z,4.09
2018-05-02T02:45:14.021Z,4.15
2018-05-02T02:46:23.413Z,4.06
2018-05-02T02:47:32.246Z,4.18
2018-05-02T02:48:41.557Z,4.11
2018-05-02T02:49:50.679Z,4.11
2018-05-02T02:50:59.513Z,4.06
2018-05-02T02:52:09.163Z,4.12
2018-05-02T02:53:18.265Z,4.09
2018-05-02T02:54:27.468Z,4.09
2018-05-02T02:55:36.582Z,4.11
2018-05-02T02:56:45.400Z,4.12
2018-05-02T02:57:54.508Z,4.06
2018-05-02T02:59:03.338Z,4.09
2018-05-02T03:00:12.318Z,4.05
2018-05-02T03:01:21.423Z,4.06
2018-05-02T03:02:30.266Z,4.06
2018-05-02T03:03:39.649Z,4.02
2018-05-02T03:04:48.754Z,3.97
2018-05-02T03:05:58.107Z,3.93
2018-05-02T03:07:07.244Z,3.94
2018-05-02T03:08:16.657Z,3.98
2018-05-02T03:09:25.759Z,3.91
2018-05-02T03:10:34.939Z,3.9
2018-05-02T03:11:44.425Z,3.88
2018-05-02T03:12:53.267Z,3.88
2018-05-02T03:14:02.367Z,3.91
2018-05-02T03:15:11.482Z,3.93
2018-05-02T03:16:20.312Z,3.84
2018-05-02T03:17:29.541Z,3.88
2018-05-02T03:18:38.369Z,3.93
2018-05-02T03:19:47.197Z,3.91
2018-05-02T03:20:56.023Z,3.91
2018-05-02T03:22:04.857Z,3.93
2018-05-02T03:23:14.259Z,3.91
2018-05-02T03:24:23.088Z,3.96
2018-05-02T03:25:32.255Z,3.86
2018-05-02T03:26:41.013Z,3.83
2018-05-02T03:27:49.848Z,3.9
2018-05-02T03:28:59.228Z,3.83
2018-05-02T03:30:08.332Z,3.87
2018-05-02T03:31:17.493Z,3.88
2018-05-02T03:32:26.611Z,3.88
2018-05-02T03:33:35.728Z,3.83
2018-05-02T03:34:44.656Z,3.72
2018-05-02T03:35:53.481Z,3.75
2018-05-02T03:37:02.311Z,3.87
2018-05-02T03:38:11.136Z,3.88
2018-05-02T03:39:20.237Z,3.84
2018-05-02T03:40:29.064Z,3.83
2018-05-02T03:41:37.892Z,3.91
2018-05-02T03:42:46.721Z,3.87
2018-05-02T03:43:55.548Z,3.87
2018-05-02T03:45:04.652Z,3.87
2018-05-02T03:46:13.633Z,3.8
2018-05-02T03:47:22.735Z,3.8
2018-05-02T03:48:31.562Z,3.91
2018-05-02T03:49:40.391Z,3.86
2018-05-02T03:50:49.220Z,3.94
2018-05-02T03:51:58.477Z,3.83
2018-05-02T03:53:07.731Z,3.87
2018-05-02T03:54:16.560Z,3.91
2018-05-02T03:55:25.387Z,3.87
2018-05-02T03:56:34.217Z,3.91
2018-05-02T03:57:43.194Z,3.88
2018-05-02T03:58:52.023Z,3.97
2018-05-02T04:00:00.853Z,3.97
2018-05-02T04:01:09.681Z,3.96
2018-05-02T04:02:18.792Z,3.97
2018-05-02T04:03:27.874Z,3.97
2018-05-02T04:04:36.699Z,3.97
2018-05-02T04:05:45.529Z,4.05
2018-05-02T04:06:54.357Z,4.04
2018-05-02T04:08:03.182Z,3.97
2018-05-02T04:09:12.167Z,3.93
2018-05-02T04:10:20.993Z,3.97
2018-05-02T04:11:29.818Z,4.09
2018-05-02T04:12:38.644Z,4.02
2018-05-02T04:13:47.748Z,4.04
2018-05-02T04:14:56.728Z,4.08
2018-05-02T04:16:05.555Z,4.05
2018-05-02T04:17:14.390Z,4.09
2018-05-02T04:18:23.503Z,4.08
2018-05-02T04:19:32.334Z,4.11
2018-05-02T04:20:41.262Z,4.09
2018-05-02T04:21:50.371Z,4.12
2018-05-02T04:22:59.188Z,4.14
2018-05-02T04:24:08.021Z,4.15
2018-05-02T04:25:16.850Z,4.09
2018-05-02T04:26:26.004Z,4.15
2018-05-02T04:27:34.828Z,4.15
2018-05-02T04:28:43.933Z,4.18
2018-05-02T04:29:52.760Z,4.22
2018-05-02T04:31:01.860Z,4.22
2018-05-02T04:32:10.790Z,4.15
2018-05-02T04:33:19.618Z,4.24
2018-05-02T04:34:28.445Z,4.26
2018-05-02T04:35:37.561Z,4.23
2018-05-02T04:36:46.389Z,4.24
2018-05-02T04:37:55.315Z,4.29
2018-05-02T04:39:04.144Z,4.29
2018-05-02T04:40:12.972Z,4.32
2018-05-02T04:41:21.798Z,4.33
2018-05-02T04:42:30.626Z,4.32
2018-05-02T04:43:39.705Z,4.33
2018-05-02T04:44:48.533Z,4.42
2018-05-02T04:45:57.359Z,4.27
2018-05-02T04:47:06.186Z,4.4
2018-05-02T04:48:15.013Z,4.41
2018-05-02T04:49:24.396Z,4.36
2018-05-02T04:50:33.224Z,4.44
2018-05-02T04:51:42.331Z,4.44
2018-05-02T04:52:51.631Z,4.42
2018-05-02T04:54:01.110Z,4.42
2018-05-02T04:55:09.990Z,4.4
2018-05-02T04:56:19.137Z,4.44
2018-05-02T04:57:28.237Z,4.52
2018-05-02T04:58:37.063Z,4.54
2018-05-02T04:59:45.889Z,4.44
2018-05-02T05:00:55.295Z,4.5
2018-05-02T05:02:04.125Z,4.52
2018-05-02T05:03:12.950Z,4.54
2018-05-02T05:04:21.778Z,4.55
2018-05-02T05:05:30.603Z,4.6
2018-05-02T05:06:39.493Z,4.62
2018-05-02T05:07:48.601Z,4.59
2018-05-02T05:08:57.703Z,4.63
2018-05-02T05:10:06.546Z,4.63
2018-05-02T05:11:15.648Z,4.78
2018-05-02T05:12:25.191Z,4.7
2018-05-02T05:13:34.019Z,4.72
2018-05-02T05:14:42.847Z,4.73
2018-05-02T05:15:51.677Z,4.77
2018-05-02T05:17:00.504Z,4.75
2018-05-02T05:18:09.711Z,4.8
2018-05-02T05:19:18.929Z,4.82
2018-05-02T05:20:28.617Z,4.75
2018-05-02T05:21:38.240Z,4.8
2018-05-02T05:22:47.076Z,4.78
2018-05-02T05:23:55.906Z,4.89
2018-05-02T05:25:04.730Z,4.97
2018-05-02T05:26:13.838Z,4.92
2018-05-02T05:27:22.939Z,4.99
2018-05-02T05:28:31.770Z,4.99
2018-05-02T05:29:40.876Z,4.96
2018-05-02T05:30:49.706Z,5.07
2018-05-02T05:31:58.532Z,5.04
2018-05-02T05:33:07.361Z,4.99
2018-05-02T05:34:16.471Z,5.04
2018-05-02T05:35:25.998Z,5.04
2018-05-02T05:36:34.828Z,5.07
2018-05-02T05:37:43.655Z,5.12
2018-05-02T05:38:52.762Z,5.15
2018-05-02T05:40:01.592Z,5.17
2018-05-02T05:41:10.418Z,5.24
2018-05-02T05:42:19.246Z,5.2
2018-05-02T05:43:28.142Z,5.22
2018-05-02T05:44:37.190Z,5.33
2018-05-02T05:45:46.021Z,5.35
2018-05-02T05:46:54.848Z,5.35
2018-05-02T05:48:03.684Z,5.35
2018-05-02T05:49:12.890Z,5.43
2018-05-02T05:50:21.716Z,5.43
2018-05-02T05:51:30.549Z,5.49
2018-05-02T05:52:39.377Z,5.6
2018-05-02T05:53:48.490Z,5.53
2018-05-02T05:54:58.091Z,5.63
2018-05-02T05:56:07.475Z,5.63
2018-05-02T05:57:16.302Z,5.68
2018-05-02T05:58:25.403Z,5.72
2018-05-02T05:59:34.235Z,5.72
2018-05-02T06:00:43.218Z,5.67
2018-05-02T06:01:52.693Z,5.75
2018-05-02T06:03:01.799Z,5.9
2018-05-02T06:04:10.632Z,5.86
2018-05-02T06:05:19.736Z,5.91
2018-05-02T06:06:28.716Z,5.9
2018-05-02T06:07:37.542Z,6.06
2018-05-02T06:08:46.373Z,6.06
2018-05-02T06:09:55.487Z,6.09
2018-05-02T06:11:04.606Z,6.17
2018-05-02T06:12:13.688Z,6.25
2018-05-02T06:13:22.788Z,6.22
2018-05-02T06:14:31.619Z,6.25
2018-05-02T06:15:40.727Z,6.31
2018-05-02T06:16:49.829Z,6.4
2018-05-02T06:17:58.812Z,6.4
2018-05-02T06:19:07.648Z,6.37
2018-05-02T06:20:16.749Z,6.55
2018-05-02T06:21:25.580Z,6.52
2018-05-02T06:22:34.425Z,6.51
2018-05-02T06:23:43.310Z,6.7
2018-05-02T06:24:52.136Z,6.7
2018-05-02T06:26:00.970Z,6.7
2018-05-02T06:27:09.801Z,6.67
2018-05-02T06:28:18.642Z,6.7
2018-05-02T06:29:27.813Z,6.74
2018-05-02T06:30:36.649Z,6.73
2018-05-02T06:31:46.211Z,6.89
2018-05-02T06:32:56.084Z,6.89
2018-05-02T06:34:04.915Z,6.91
2018-05-02T06:35:14.202Z,7.02
2018-05-02T06:36:23.588Z,7.03
2018-05-02T06:37:32.424Z,6.99
2018-05-02T06:38:41.642Z,7.07
2018-05-02T06:39:50.472Z,7.21
2018-05-02T06:40:59.631Z,7.25
2018-05-02T06:42:08.467Z,7.17
2018-05-02T06:43:17.845Z,7.2
2018-05-02T06:44:26.674Z,7.28
2018-05-02T06:45:35.784Z,7.31
2018-05-02T06:46:44.718Z,7.4
2018-05-02T06:47:53.547Z,7.48
2018-05-02T06:49:02.381Z,7.42
2018-05-02T06:50:11.560Z,7.46
2018-05-02T06:51:20.906Z,7.52
2018-05-02T06:52:29.986Z,7.58
2018-05-02T06:53:38.817Z,7.67
2018-05-02T06:54:47.740Z,7.67
2018-05-02T06:55:56.475Z,7.71
2018-05-02T06:57:05.306Z,7.79
2018-05-02T06:58:14.289Z,7.93
2018-05-02T06:59:23.399Z,7.86
2018-05-02T07:00:32.506Z,7.89
2018-05-02T07:01:41.341Z,7.98
2018-05-02T07:02:50.450Z,7.97
2018-05-02T07:03:59.329Z,8.07
2018-05-02T07:05:08.164Z,8.1
2018-05-02T07:06:16.994Z,8.29
2018-05-02T07:07:26.103Z,8.22
2018-05-02T07:08:34.933Z,8.33
2018-05-02T07:09:44.090Z,8.3
2018-05-02T07:10:52.917Z,8.43
2018-05-02T07:12:01.753Z,8.41
2018-05-02T07:13:10.859Z,8.45
2018-05-02T07:14:19.692Z,8.56
2018-05-02T07:15:28.911Z,8.55
2018-05-02T07:16:37.740Z,8.74
2018-05-02T07:17:46.571Z,8.8
2018-05-02T07:18:55.402Z,8.79
2018-05-02T07:20:04.521Z,8.86
2018-05-02T07:21:13.629Z,8.86
2018-05-02T07:22:22.462Z,8.87
2018-05-02T07:23:31.297Z,9.01
2018-05-02T07:24:40.127Z,9.05
2018-05-02T07:25:49.232Z,9.1
2018-05-02T07:26:58.212Z,9.13
2018-05-02T07:28:07.043Z,9.32
2018-05-02T07:29:15.876Z,9.32
2018-05-02T07:30:24.706Z,9.29
2018-05-02T07:31:33.539Z,9.39
2018-05-02T07:32:43.143Z,9.46
2018-05-02T07:33:52.382Z,9.35
2018-05-02T07:35:01.215Z,9.4
2018-05-02T07:36:10.049Z,9.53
2018-05-02T07:37:19.159Z,9.61
2018-05-02T07:38:28.367Z,9.64
2018-05-02T07:39:37.198Z,9.66
2018-05-02T07:40:46.028Z,9.61
2018-05-02T07:41:54.860Z,9.86
2018-05-02T07:43:03.694Z,9.97
2018-05-02T07:44:12.780Z,9.97
2018-05-02T07:45:21.616Z,10.09
2018-05-02T07:46:30.724Z,10.17
2018-05-02T07:47:39.606Z,10.17
2018-05-02T07:48:48.440Z,10.18
2018-05-02T07:49:57.382Z,10.15
2018-05-02T07:51:06.213Z,10.18
2018-05-02T07:52:15.044Z,10.2
2018-05-02T07:53:23.876Z,10.41
2018-05-02T07:54:32.713Z,10.4
2018-05-02T07:55:42.198Z,10.56
2018-05-02T07:56:51.035Z,10.45
2018-05-02T07:57:59.876Z,10.59
2018-05-02T07:59:09.094Z,10.64
2018-05-02T08:00:18.752Z,10.61
2018-05-02T08:01:28.057Z,10.68
2018-05-02T08:02:37.168Z,10.89
2018-05-02T08:03:46.000Z,10.86
2018-05-02T08:04:54.832Z,11
2018-05-02T08:06:03.948Z,10.94
2018-05-02T08:07:12.980Z,11.14
2018-05-02T08:08:21.819Z,11.19
2018-05-02T08:09:30.928Z,11.21
2018-05-02T08:10:40.312Z,11.29
2018-05-02T08:11:49.145Z,11.35
2018-05-02T08:12:58.506Z,11.52
2018-05-02T08:14:07.622Z,11.58
2018-05-02T08:15:16.728Z,11.55
2018-05-02T08:16:25.900Z,11.58
2018-05-02T08:17:36.068Z,11.64
2018-05-02T08:18:45.302Z,11.76
2018-05-02T08:19:54.143Z,11.7
2018-05-02T08:21:03.252Z,11.65
2018-05-02T08:22:12.087Z,11.73
2018-05-02T08:23:20.922Z,11.78
2018-05-02T08:24:29.954Z,11.76
2018-05-02T08:25:38.790Z,11.76
2018-05-02T08:26:47.630Z,11.83
2018-05-02T08:27:56.736Z,11.9
2018-05-02T08:29:05.567Z,12.21
2018-05-02T08:30:14.501Z,12.17
2018-05-02T08:31:23.391Z,12.29
2018-05-02T08:32:32.172Z,12.27
2018-05-02T08:33:41.008Z,12.41
2018-05-02T08:34:49.842Z,12.35
2018-05-02T08:35:59.009Z,12.42
2018-05-02T08:37:07.846Z,12.42
2018-05-02T08:38:16.676Z,12.54
2018-05-02T08:39:25.509Z,12.62
2018-05-02T08:40:34.342Z,12.59
2018-05-02T08:41:43.551Z,12.64
2018-05-02T08:42:52.384Z,12.67
2018-05-02T08:44:01.216Z,12.72
2018-05-02T08:45:10.051Z,12.7
2018-05-02T08:46:18.884Z,12.77
2018-05-02T08:47:27.819Z,12.79
2018-05-02T08:48:37.211Z,12.87
2018-05-02T08:49:46.325Z,12.93
2018-05-02T08:50:55.161Z,12.9
2018-05-02T08:52:03.996Z,13.03
2018-05-02T08:53:12.882Z,13.01
2018-05-02T08:54:21.717Z,13.05
2018-05-02T08:55:30.553Z,13.08
2018-05-02T08:56:39.393Z,13.12
2018-05-02T08:57:48.228Z,13.36
2018-05-02T08:58:57.062Z,13.32
2018-05-02T09:00:06.175Z,13.3
2018-05-02T09:01:15.011Z,13.33
2018-05-02T09:02:23.846Z,13.44
2018-05-02T09:03:32.680Z,13.46
2018-05-02T09:04:42.100Z,13.54
2018-05-02T09:05:50.935Z,13.59
2018-05-02T09:06:59.773Z,13.6
2018-05-02T09:08:08.880Z,13.81
2018-05-02T09:09:17.713Z,13.79
2018-05-02T09:10:26.596Z,13.91
2018-05-02T09:11:35.430Z,13.84
2018-05-02T09:12:44.265Z,14.1
2018-05-02T09:13:53.102Z,13.97
2018-05-02T09:15:01.936Z,14
2018-05-02T09:16:11.170Z,13.96
2018-05-02T09:17:20.005Z,13.85
2018-05-02T09:18:29.120Z,13.96
2018-05-02T09:19:37.957Z,13.96
2018-05-02T09:20:46.791Z,14.03
2018-05-02T09:21:55.835Z,14.14
2018-05-02T09:23:04.669Z,14.07
2018-05-02T09:24:13.785Z,14.09
2018-05-02T09:25:22.895Z,14.03
2018-05-02T09:26:31.734Z,14.17
2018-05-02T09:27:40.711Z,14.15
2018-05-02T09:28:49.828Z,14.32
2018-05-02T09:29:58.662Z,14.5
2018-05-02T09:31:07.772Z,14.35
2018-05-02T09:32:16.612Z,14.24
2018-05-02T09:33:25.542Z,14.28
2018-05-02T09:34:34.380Z,14.27
2018-05-02T09:35:43.244Z,14.25
2018-05-02T09:36:52.052Z,14.35
2018-05-02T09:38:00.890Z,14.51
2018-05-02T09:39:10.430Z,14.43
2018-05-02T09:40:19.269Z,14.54
2018-05-02T09:41:28.107Z,14.72
2018-05-02T09:42:36.942Z,14.8
2018-05-02T09:43:45.778Z,14.58
2018-05-02T09:44:55.315Z,14.68
2018-05-02T09:46:04.425Z,14.51
2018-05-02T09:47:13.262Z,14.72
2018-05-02T09:48:22.374Z,14.8
2018-05-02T09:49:31.213Z,14.91
2018-05-02T09:50:40.098Z,14.91
2018-05-02T09:51:48.932Z,14.96
2018-05-02T09:52:58.324Z,15.07
2018-05-02T09:54:07.162Z,15.21
2018-05-02T09:55:15.998Z,15.2
2018-05-02T09:56:25.035Z,15.21
2018-05-02T09:57:34.147Z,15.29
2018-05-02T09:58:42.983Z,15.31
2018-05-02T09:59:51.822Z,15.34
2018-05-02T10:01:00.658Z,15.35
2018-05-02T10:02:09.497Z,15.39
2018-05-02T10:03:18.336Z,15.39
2018-05-02T10:04:27.249Z,15.49
2018-05-02T10:05:36.346Z,15.56
2018-05-02T10:06:45.182Z,15.6
2018-05-02T10:07:54.268Z,15.6
2018-05-02T10:09:03.101Z,15.54
2018-05-02T10:10:11.940Z,15.68
2018-05-02T10:11:20.780Z,15.6
2018-05-02T10:12:29.990Z,15.75
2018-05-02T10:13:39.957Z,15.76
2018-05-02T10:14:48.794Z,15.67
2018-05-02T10:15:57.630Z,15.69
2018-05-02T10:17:06.468Z,15.72
2018-05-02T10:18:15.306Z,15.68
2018-05-02T10:19:24.194Z,15.75
2018-05-02T10:20:33.027Z,15.74
2018-05-02T10:21:41.868Z,15.68
2018-05-02T10:22:50.982Z,15.64
2018-05-02T10:24:00.101Z,15.69
2018-05-02T10:25:08.993Z,15.68
2018-05-02T10:26:17.880Z,15.65
2018-05-02T10:27:26.664Z,15.65
2018-05-02T10:28:35.500Z,15.57
2018-05-02T10:29:44.339Z,15.64
2018-05-02T10:30:53.325Z,15.65
2018-05-02T10:32:02.445Z,15.68
2018-05-02T10:33:11.279Z,15.78
2018-05-02T10:34:20.117Z,15.71
2018-05-02T10:35:28.953Z,15.75
2018-05-02T10:36:37.889Z,15.67
2018-05-02T10:37:46.997Z,15.74
2018-05-02T10:38:56.108Z,15.65
2018-05-02T10:40:04.948Z,15.74
2018-05-02T10:41:14.066Z,15.65
2018-05-02T10:42:23.099Z,15.6
2018-05-02T10:43:31.939Z,15.64
2018-05-02T10:44:40.776Z,15.65
2018-05-02T10:45:49.612Z,15.57
2018-05-02T10:46:58.449Z,15.65
2018-05-02T10:48:07.534Z,15.82
2018-05-02T10:49:16.648Z,15.64
2018-05-02T10:50:25.570Z,15.68
2018-05-02T10:51:34.322Z,15.82
2018-05-02T10:52:43.161Z,15.69
2018-05-02T10:53:52.098Z,15.71
2018-05-02T10:55:00.934Z,15.72
2018-05-02T10:56:09.772Z,15.64
2018-05-02T10:57:18.606Z,15.59
2018-05-02T10:58:27.441Z,15.65
2018-05-02T10:59:36.379Z,15.59
2018-05-02T11:00:45.491Z,15.54
2018-05-02T11:01:54.330Z,15.56
2018-05-02T11:03:03.169Z,15.54
2018-05-02T11:04:12.006Z,15.62
2018-05-02T11:05:21.223Z,15.65
2018-05-02T11:06:30.060Z,15.64
2018-05-02T11:07:38.894Z,15.71
2018-05-02T11:08:47.731Z,15.8
2018-05-02T11:09:56.858Z,15.87
2018-05-02T11:11:05.831Z,15.87
2018-05-02T11:12:14.666Z,15.94
2018-05-02T11:13:23.504Z,16.01
2018-05-02T11:14:32.340Z,16.01
2018-05-02T11:15:41.456Z,16.08
2018-05-02T11:16:50.612Z,16.2
2018-05-02T11:17:59.451Z,16.28
2018-05-02T11:19:08.285Z,16.33
2018-05-02T11:20:17.409Z,16.35
2018-05-02T11:21:26.519Z,16.33
2018-05-02T11:22:35.356Z,16.46
2018-05-02T11:23:44.192Z,16.45
2018-05-02T11:24:53.312Z,16.64
2018-05-02T11:26:02.146Z,16.7
2018-05-02T11:27:10.983Z,16.79
2018-05-02T11:28:20.144Z,16.83
2018-05-02T11:29:28.928Z,16.93
2018-05-02T11:30:37.765Z,16.89
2018-05-02T11:31:46.879Z,16.79
2018-05-02T11:32:55.717Z,16.85
2018-05-02T11:34:04.559Z,16.85
2018-05-02T11:35:13.392Z,16.94
2018-05-02T11:36:22.230Z,16.91
2018-05-02T11:37:31.344Z,17.12
2018-05-02T11:38:40.180Z,17.16
2018-05-02T11:39:49.429Z,17.07
2018-05-02T11:40:58.266Z,17.15
2018-05-02T11:42:07.104Z,17.31
2018-05-02T11:43:15.940Z,17.18
2018-05-02T11:44:24.775Z,17.16
2018-05-02T11:45:33.987Z,17.4
2018-05-02T11:46:42.833Z,17.33
2018-05-02T11:47:51.664Z,17.43
2018-05-02T11:49:00.501Z,17.36
2018-05-02T11:50:09.338Z,17.26
2018-05-02T11:51:18.577Z,17.37
2018-05-02T11:52:27.690Z,17.31
2018-05-02T11:53:36.526Z,17.51
2018-05-02T11:54:45.642Z,17.55
2018-05-02T11:55:55.047Z,17.52
2018-05-02T11:57:04.181Z,17.78
2018-05-02T11:58:13.020Z,17.87
2018-05-02T11:59:21.860Z,17.96
2018-05-02T12:00:30.701Z,18.02
2018-05-02T12:01:39.815Z,18.07
2018-05-02T12:02:48.818Z,18.14
2018-05-02T12:03:57.651Z,18.26
2018-05-02T12:05:06.502Z,18.39
2018-05-02T12:06:15.352Z,18.51
2018-05-02T12:07:24.195Z,18.52
2018-05-02T12:08:33.039Z,18.32
2018-05-02T12:09:41.880Z,18.32
2018-05-02T12:10:51.004Z,18.42
2018-05-02T12:11:59.838Z,18.57
2018-05-02T12:13:08.960Z,18.57
2018-05-02T12:14:17.814Z,18.76
2018-05-02T12:15:26.651Z,18.78
2018-05-02T12:16:35.510Z,18.84
2018-05-02T12:17:44.345Z,18.81
2018-05-02T12:18:53.203Z,18.85
2018-05-02T12:20:02.372Z,18.88
2018-05-02T12:21:11.488Z,18.94
2018-05-02T12:22:20.333Z,19.11
2018-05-02T12:23:29.177Z,19.14
2018-05-02T12:24:38.021Z,19.19
2018-05-02T12:25:46.863Z,19.07
2018-05-02T12:26:55.708Z,19.11
2018-05-02T12:28:04.558Z,19.06
2018-05-02T12:29:13.401Z,19.21
2018-05-02T12:30:22.523Z,19.26
2018-05-02T12:31:31.417Z,19.21
2018-05-02T12:32:40.264Z,19.08
2018-05-02T12:33:49.108Z,19.19
2018-05-02T12:34:57.951Z,19.21
2018-05-02T12:36:06.800Z,19.29
2018-05-02T12:37:15.799Z,19.41
2018-05-02T12:38:24.639Z,19.61
2018-05-02T12:39:33.485Z,19.59
2018-05-02T12:40:42.361Z,19.59
2018-05-02T12:41:51.204Z,19.73
2018-05-02T12:43:00.356Z,19.61
2018-05-02T12:44:09.485Z,19.54
2018-05-02T12:45:18.330Z,19.47
2018-05-02T12:46:27.455Z,19.46
2018-05-02T12:47:36.306Z,19.63
2018-05-02T12:48:45.575Z,19.68
2018-05-02T12:49:54.422Z,19.99
2018-05-02T12:51:03.269Z,19.94
2018-05-02T12:52:12.116Z,19.81
2018-05-02T12:53:20.963Z,19.87
2018-05-02T12:54:29.911Z,19.95
2018-05-02T12:55:38.756Z,20.13
2018-05-02T12:56:47.603Z,20.08
2018-05-02T12:57:56.453Z,20.02
2018-05-02T12:59:05.300Z,20.03
2018-05-02T13:00:14.346Z,20.02
2018-05-02T13:01:23.197Z,19.94
2018-05-02T13:02:32.150Z,20.05
2018-05-02T13:03:41.010Z,20.06
2018-05-02T13:04:49.860Z,19.96
2018-05-02T13:05:58.957Z,19.77
2018-05-02T13:07:07.839Z,19.81
2018-05-02T13:08:16.801Z,19.74
2018-05-02T13:09:25.606Z,19.98
2018-05-02T13:10:34.419Z,20.1
2018-05-02T13:11:43.541Z,20.11
2018-05-02T13:12:52.391Z,20.29
2018-05-02T13:14:01.526Z,20.41
2018-05-02T13:15:10.928Z,20.42
2018-05-02T13:16:20.052Z,20.39
2018-05-02T13:17:29.120Z,20.62
2018-05-02T13:18:37.972Z,20.51
2018-05-02T13:19:46.822Z,20.52
2018-05-02T13:20:56.226Z,20.42
2018-05-02T13:22:05.074Z,20.32
2018-05-02T13:23:13.978Z,20.32
2018-05-02T13:24:22.829Z,20.31
2018-05-02T13:25:31.688Z,20.28
2018-05-02T13:26:40.534Z,20.62
2018-05-02T13:27:49.384Z,20.59
2018-05-02T13:28:58.660Z,20.73
2018-05-02T13:30:07.799Z,20.82
2018-05-02T13:31:16.651Z,20.91
2018-05-02T13:32:25.777Z,21.1
2018-05-02T13:33:34.909Z,21.24
2018-05-02T13:34:44.514Z,21.12
2018-05-02T13:35:53.635Z,21.06
2018-05-02T13:37:02.486Z,21.04
2018-05-02T13:38:11.334Z,20.79
2018-05-02T13:39:20.457Z,20.98
2018-05-02T13:40:29.732Z,20.94
2018-05-02T13:41:38.585Z,20.88
2018-05-02T13:42:47.436Z,20.87
2018-05-02T13:43:56.777Z,20.88
2018-05-02T13:45:05.564Z,20.8
2018-05-02T13:46:14.838Z,21.03
2018-05-02T13:47:23.688Z,20.8
2018-05-02T13:48:32.536Z,20.66
2018-05-02T13:49:41.391Z,20.57
2018-05-02T13:50:50.237Z,20.7
2018-05-02T13:51:59.186Z,21.1
2018-05-02T13:53:08.038Z,21.27
2018-05-02T13:54:16.888Z,21.34
2018-05-02T13:55:26.092Z,21.59
2018-05-02T13:56:35.162Z,21.65
2018-05-02T13:57:44.164Z,21.44
2018-05-02T13:58:53.019Z,21.46
2018-05-02T14:00:02.146Z,21.43
2018-05-02T14:01:11.004Z,21.65
2018-05-02T14:02:20.125Z,21.68
2018-05-02T14:03:29.224Z,21.86
2018-05-02T14:04:38.353Z,21.92
2018-05-02T14:05:47.203Z,22.03
2018-05-02T14:06:56.048Z,22.03
2018-05-02T14:08:05.179Z,22.03
2018-05-02T14:09:14.084Z,21.8
2018-05-02T14:10:23.209Z,21.67
2018-05-02T14:11:32.065Z,21.58
2018-05-02T14:12:41.467Z,21.74
2018-05-02T14:13:50.320Z,21.82
2018-05-02T14:14:59.272Z,22.22
2018-05-02T14:16:08.125Z,22.35
2018-05-02T14:17:16.976Z,22.57
2018-05-02T14:18:25.825Z,22.49
2018-05-02T14:19:34.947Z,22.45
2018-05-02T14:20:43.948Z,22.64
2018-05-02T14:21:52.799Z,22.72
2018-05-02T14:23:01.653Z,22.35
2018-05-02T14:24:10.632Z,22.15
2018-05-02T14:25:19.485Z,22.18
2018-05-02T14:26:28.336Z,22.4
2018-05-02T14:27:37.194Z,22.57
2018-05-02T14:28:46.040Z,22.73
2018-05-02T14:29:54.892Z,22.55
2018-05-02T14:31:03.891Z,22.35
2018-05-02T14:32:12.744Z,22.57
2018-05-02T14:33:21.597Z,22.67
2018-05-02T14:34:30.446Z,22.86
2018-05-02T14:35:39.294Z,22.94
2018-05-02T14:36:48.147Z,22.77
2018-05-02T14:37:57.001Z,22.73
2018-05-02T14:39:05.852Z,22.91
2018-05-02T14:40:14.722Z,22.79
2018-05-02T14:41:23.573Z,22.6
2018-05-02T14:42:32.423Z,22.49
2018-05-02T14:43:41.278Z,22.58
2018-05-02T14:44:50.415Z,22.55
2018-05-02T14:45:59.263Z,22.51
2018-05-02T14:47:08.398Z,22.7
2018-05-02T14:48:17.245Z,22.75
2018-05-02T14:49:26.095Z,22.64
2018-05-02T14:50:34.950Z,22.77
2018-05-02T14:51:44.210Z,22.76
2018-05-02T14:52:53.054Z,22.79
2018-05-02T14:54:01.906Z,22.7
2018-05-02T14:55:10.756Z,22.92
2018-05-02T14:56:19.607Z,22.97
2018-05-02T14:57:28.882Z,22.86
2018-05-02T14:58:37.732Z,23.17
2018-05-02T14:59:46.585Z,23.38
2018-05-02T15:00:55.436Z,22.9
2018-05-02T15:02:04.720Z,23.1
2018-05-02T15:03:14.337Z,23.13
2018-05-02T15:04:23.741Z,23.15
2018-05-02T15:05:32.594Z,23.33
2018-05-02T15:06:42.052Z,23.22